createdAt,value
2023-04-16T00:01:59.348Z,100833.56
2023-04-16T00:04:26.450Z,100834.25
2023-04-16T00:06:53.331Z,100835.09
2023-04-16T00:09:20.206Z,100827.22
2023-04-16T00:11:47.271Z,100819.00
2023-04-16T00:14:14.084Z,100825.78
2023-04-16T00:16:42.266Z,100821.66
2023-04-16T00:19:09.645Z,100830.50
2023-04-16T00:21:36.686Z,100818.75
2023-04-16T00:24:03.537Z,100815.06
2023-04-16T00:26:30.496Z,100818.34
2023-04-16T00:28:57.316Z,100816.28
2023-04-16T00:31:31.973Z,100819.00
2023-04-16T00:33:59.809Z,100820.81
2023-04-16T00:36:27.961Z,100822.88
2023-04-16T00:38:56.192Z,100817.94
2023-04-16T00:41:23.721Z,100812.78
2023-04-16T00:43:51.729Z,100808.25
2023-04-16T00:46:23.461Z,100806.19
2023-04-16T00:48:51.704Z,100805.13
2023-04-16T00:51:19.028Z,100802.06
2023-04-16T00:53:46.684Z,100804.28
2023-04-16T00:56:13.846Z,100805.56
2023-04-16T00:58:41.157Z,100811.34
2023-04-16T01:01:08.161Z,100802.84
2023-04-16T01:03:39.798Z,100807.19
2023-04-16T01:06:07.705Z,100803.09
2023-04-16T01:08:34.862Z,100801.22
2023-04-16T01:11:02.444Z,100795.03
2023-04-16T01:13:29.479Z,100791.91
2023-04-16T01:15:56.514Z,100795.00
2023-04-16T01:18:23.931Z,100792.34
2023-04-16T01:20:51.601Z,100800.16
2023-04-16T01:23:19.358Z,100793.38
2023-04-16T01:25:47.105Z,100808.44
2023-04-16T01:28:13.993Z,100790.88
2023-04-16T01:30:41.504Z,100789.25
2023-04-16T01:33:28.621Z,100786.56
2023-04-16T01:35:55.752Z,100784.50
2023-04-16T01:38:22.565Z,100787.38
2023-04-16T01:40:50.780Z,100793.16
2023-04-16T01:43:17.663Z,100797.03
2023-04-16T01:45:44.512Z,100796.78
2023-04-16T01:48:12.014Z,100796.78
2023-04-16T01:50:38.957Z,100785.03
2023-04-16T01:53:05.822Z,100787.31
2023-04-16T01:55:34.085Z,100785.69
2023-04-16T01:58:00.914Z,100793.69
2023-04-16T02:00:31.634Z,100786.22
2023-04-16T02:02:59.354Z,100776.53
2023-04-16T02:05:28.115Z,100781.94
2023-04-16T02:07:55.113Z,100790.78
2023-04-16T02:10:22.278Z,100788.75
2023-04-16T02:12:49.778Z,100787.91
2023-04-16T02:15:16.611Z,100789.81
2023-04-16T02:17:43.965Z,100785.28
2023-04-16T02:20:11.431Z,100777.84
2023-04-16T02:22:45.021Z,100780.09
2023-04-16T02:25:15.789Z,100770.66
2023-04-16T02:27:43.220Z,100785.44
2023-04-16T02:30:23.058Z,100787.31
2023-04-16T02:32:50.208Z,100778.47
2023-04-16T02:35:17.395Z,100785.13
2023-04-16T02:37:45.281Z,100790.84
2023-04-16T02:40:12.141Z,100790.44
2023-04-16T02:42:39.008Z,100789.63
2023-04-16T02:45:07.213Z,100786.94
2023-04-16T02:47:34.490Z,100784.88
2023-04-16T02:50:01.335Z,100779.88
2023-04-16T02:52:28.158Z,100772.91
2023-04-16T02:54:54.978Z,100777.22
2023-04-16T02:57:21.974Z,100777.00
2023-04-16T02:59:48.752Z,100769.16
2023-04-16T03:02:16.360Z,100767.50
2023-04-16T03:04:43.710Z,100764.00
2023-04-16T03:07:12.579Z,100757.63
2023-04-16T03:09:39.567Z,100759.50
2023-04-16T03:12:06.466Z,100758.66
2023-04-16T03:14:33.748Z,100752.06
2023-04-16T03:17:00.684Z,100752.88
2023-04-16T03:19:27.453Z,100753.69
2023-04-16T03:21:54.280Z,100756.59
2023-04-16T03:24:21.306Z,100749.59
2023-04-16T03:26:49.149Z,100757.22
2023-04-16T03:29:16.104Z,100756.19
2023-04-16T03:31:43.391Z,100753.25
2023-04-16T03:34:10.856Z,100753.91
2023-04-16T03:36:39.305Z,100749.78
2023-04-16T03:39:07.694Z,100745.38
2023-04-16T03:41:36.113Z,100742.13
2023-04-16T03:44:03.410Z,100743.56
2023-04-16T03:46:30.638Z,100743.16
2023-04-16T03:48:57.760Z,100750.56
2023-04-16T03:51:25.270Z,100753.03
2023-04-16T03:53:52.284Z,100750.56
2023-04-16T03:56:19.433Z,100753.91
2023-04-16T03:58:46.238Z,100748.13
2023-04-16T04:01:13.067Z,100740.34
2023-04-16T04:03:40.279Z,100733.50
2023-04-16T04:06:10.550Z,100739.06
2023-04-16T04:08:37.329Z,100744.22
2023-04-16T04:11:05.249Z,100744.44
2023-04-16T04:13:33.884Z,100743.59
2023-04-16T04:16:00.724Z,100745.72
2023-04-16T04:18:28.439Z,100744.44
2023-04-16T04:20:55.235Z,100752.06
2023-04-16T04:23:26.594Z,100739.31
2023-04-16T04:25:53.400Z,100738.47
2023-04-16T04:28:20.674Z,100736.41
2023-04-16T04:30:47.607Z,100737.22
2023-04-16T04:33:14.492Z,100746.53
2023-04-16T04:35:43.263Z,100748.19
2023-04-16T04:38:10.008Z,100747.94
2023-04-16T04:40:36.984Z,100746.69
2023-04-16T04:43:04.179Z,100747.53
2023-04-16T04:45:32.137Z,100748.19
2023-04-16T04:47:59.394Z,100752.50
2023-04-16T04:50:26.402Z,100748.81
2023-04-16T04:52:53.185Z,100752.50
2023-04-16T04:55:21.017Z,100749.38
2023-04-16T04:57:48.626Z,100755.34
2023-04-16T05:00:15.716Z,100757.84
2023-04-16T05:02:52.154Z,100756.19
2023-04-16T05:05:19.229Z,100763.38
2023-04-16T05:07:46.090Z,100754.78
2023-04-16T05:10:13.019Z,100756.38
2023-04-16T05:12:40.211Z,100765.00
2023-04-16T05:15:07.734Z,100755.94
2023-04-16T05:17:34.618Z,100755.97
2023-04-16T05:20:01.544Z,100755.16
2023-04-16T05:22:28.298Z,100760.91
2023-04-16T05:24:55.115Z,100758.19
2023-04-16T05:27:21.895Z,100753.50
2023-04-16T05:29:48.693Z,100751.19
2023-04-16T05:32:15.460Z,100751.34
2023-04-16T05:34:42.291Z,100753.56
2023-04-16T05:37:09.120Z,100753.56
2023-04-16T05:39:35.980Z,100760.50
2023-04-16T05:42:02.766Z,100757.88
2023-04-16T05:44:29.826Z,100766.88
2023-04-16T05:46:56.599Z,100765.72
2023-04-16T05:49:23.520Z,100769.16
2023-04-16T05:51:50.954Z,100770.59
2023-04-16T05:54:18.063Z,100760.03
2023-04-16T05:56:44.909Z,100755.28
2023-04-16T05:59:12.036Z,100755.34
2023-04-16T06:01:39.278Z,100758.44
2023-04-16T06:04:06.288Z,100742.97
2023-04-16T06:06:33.372Z,100739.22
2023-04-16T06:09:00.223Z,100739.84
2023-04-16T06:11:27.695Z,100747.69
2023-04-16T06:13:54.576Z,100746.44
2023-04-16T06:16:21.471Z,100749.59
2023-04-16T06:18:48.468Z,100755.44
2023-04-16T06:21:15.769Z,100766.00
2023-04-16T06:23:42.595Z,100777.13
2023-04-16T06:26:09.417Z,100766.16
2023-04-16T06:28:36.501Z,100779.16
2023-04-16T06:31:03.420Z,100767.78
2023-04-16T06:33:30.331Z,100778.94
2023-04-16T06:35:57.129Z,100774.81
2023-04-16T06:38:24.058Z,100770.25
2023-04-16T06:40:50.992Z,100789.50
2023-04-16T06:43:18.071Z,100784.56
2023-04-16T06:45:45.466Z,100783.72
2023-04-16T06:48:12.283Z,100785.78
2023-04-16T06:50:39.097Z,100779.59
2023-04-16T06:53:05.971Z,100784.94
2023-04-16T06:55:32.854Z,100771.75
2023-04-16T06:57:59.723Z,100775.47
2023-04-16T07:00:26.496Z,100771.31
2023-04-16T07:02:54.680Z,100771.94
2023-04-16T07:05:23.250Z,100773.19
2023-04-16T07:07:50.048Z,100778.56
2023-04-16T07:10:16.972Z,100784.50
2023-04-16T07:12:43.974Z,100782.63
2023-04-16T07:15:11.230Z,100783.41
2023-04-16T07:17:38.224Z,100789.41
2023-04-16T07:20:05.689Z,100785.66
2023-04-16T07:22:32.559Z,100789.38
2023-04-16T07:24:59.303Z,100790.22
2023-04-16T07:27:26.086Z,100800.34
2023-04-16T07:29:52.932Z,100793.91
2023-04-16T07:32:20.308Z,100795.34
2023-04-16T07:34:47.164Z,100802.19
2023-04-16T07:37:13.892Z,100799.28
2023-04-16T07:39:40.755Z,100796.75
2023-04-16T07:42:07.585Z,100795.50
2023-04-16T07:44:34.368Z,100797.34
2023-04-16T07:47:02.783Z,100796.28
2023-04-16T07:49:31.078Z,100791.28
2023-04-16T07:51:57.895Z,100803.22
2023-04-16T07:54:24.713Z,100803.69
2023-04-16T07:56:51.953Z,100808.00
2023-04-16T07:59:22.878Z,100816.84
2023-04-16T08:01:50.351Z,100818.94
2023-04-16T08:04:23.151Z,100822.66
2023-04-16T08:06:51.632Z,100831.31
2023-04-16T08:09:23.298Z,100820.19
2023-04-16T08:11:50.217Z,100823.63
2023-04-16T08:14:17.615Z,100822.53
2023-04-16T08:16:45.018Z,100827.09
2023-04-16T08:19:11.914Z,100825.59
2023-04-16T08:21:39.035Z,100830.91
2023-04-16T08:24:06.131Z,100828.66
2023-04-16T08:26:32.932Z,100832.16
2023-04-16T08:28:59.715Z,100828.81
2023-04-16T08:31:26.565Z,100826.28
2023-04-16T08:33:53.555Z,100836.03
2023-04-16T08:36:20.868Z,100821.34
2023-04-16T08:38:47.668Z,100826.03
2023-04-16T08:41:15.078Z,100818.19
2023-04-16T08:43:45.040Z,100831.84
2023-04-16T08:46:12.699Z,100820.44
2023-04-16T08:48:42.997Z,100819.94
2023-04-16T08:51:11.024Z,100815.31
2023-04-16T08:53:52.298Z,100828.19
2023-04-16T08:56:20.610Z,100825.16
2023-04-16T08:58:49.144Z,100833.03
2023-04-16T09:01:18.168Z,100827.06
2023-04-16T09:03:47.478Z,100824.97
2023-04-16T09:06:16.510Z,100834.41
2023-04-16T09:08:46.653Z,100831.94
2023-04-16T09:11:19.321Z,100831.13
2023-04-16T09:13:47.072Z,100830.81
2023-04-16T09:16:15.433Z,100835.59
2023-04-16T09:18:42.276Z,100837.59
2023-04-16T09:21:12.872Z,100835.72
2023-04-16T09:23:40.427Z,100839.19
2023-04-16T09:26:07.300Z,100847.50
2023-04-16T09:28:51.524Z,100840.13
2023-04-16T09:31:19.557Z,100844.34
2023-04-16T09:34:09.493Z,100839.56
2023-04-16T09:36:36.989Z,100844.16
2023-04-16T09:39:04.339Z,100841.22
2023-04-16T09:41:33.392Z,100849.44
2023-04-16T09:44:02.319Z,100846.38
2023-04-16T09:46:35.206Z,100845.56
2023-04-16T09:49:14.938Z,100856.91
2023-04-16T09:51:42.571Z,100853.84
2023-04-16T09:54:10.090Z,100842.19
2023-04-16T09:56:43.741Z,100845.63
2023-04-16T09:59:24.063Z,100846.22
2023-04-16T10:01:53.461Z,100833.19
2023-04-16T10:04:51.410Z,100835.84
2023-04-16T10:07:19.088Z,100836.81
2023-04-16T10:09:48.498Z,100843.63
2023-04-16T10:12:16.118Z,100841.81
2023-04-16T10:14:43.320Z,100840.47
2023-04-16T10:17:10.430Z,100839.75
2023-04-16T10:19:37.744Z,100850.53
2023-04-16T10:22:05.257Z,100837.28
2023-04-16T10:24:33.783Z,100840.66
2023-04-16T10:27:00.798Z,100841.94
2023-04-16T10:29:29.565Z,100823.06
2023-04-16T10:31:56.967Z,100848.66
2023-04-16T10:34:24.800Z,100839.50
2023-04-16T10:36:53.069Z,100842.06
2023-04-16T10:39:24.320Z,100853.31
2023-04-16T10:41:51.823Z,100846.19
2023-04-16T10:44:19.685Z,100842.16
2023-04-16T10:46:50.841Z,100837.88
2023-04-16T10:49:24.938Z,100847.75
2023-04-16T10:52:18.276Z,100837.41
2023-04-16T10:54:47.018Z,100841.94
2023-04-16T10:57:18.296Z,100835.16
2023-04-16T10:59:46.135Z,100832.53
2023-04-16T11:02:19.711Z,100841.53
2023-04-16T11:04:50.759Z,100844.75
2023-04-16T11:07:22.802Z,100841.25
2023-04-16T11:09:59.603Z,100835.22
2023-04-16T11:12:38.055Z,100835.00
2023-04-16T11:15:06.525Z,100841.56
2023-04-16T11:17:40.604Z,100840.03
2023-04-16T11:20:20.263Z,100829.41
2023-04-16T11:22:52.251Z,100834.56
2023-04-16T11:25:34.280Z,100833.47
2023-04-16T11:28:02.983Z,100839.63
2023-04-16T11:30:38.613Z,100845.47
2023-04-16T11:33:09.456Z,100837.69
2023-04-16T11:35:36.356Z,100850.25
2023-04-16T11:38:03.126Z,100856.75
2023-04-16T11:40:31.310Z,100856.28
2023-04-16T11:43:03.293Z,100848.28
2023-04-16T11:45:30.057Z,100859.00
2023-04-16T11:47:58.018Z,100859.72
2023-04-16T11:50:26.449Z,100860.34
2023-04-16T11:52:57.457Z,100863.13
2023-04-16T11:55:24.268Z,100858.91
2023-04-16T11:57:51.950Z,100871.03
2023-04-16T12:00:24.474Z,100864.91
2023-04-16T12:02:57.273Z,100864.56
2023-04-16T12:05:42.333Z,100868.53
2023-04-16T12:08:10.922Z,100868.97
2023-04-16T12:10:53.589Z,100866.72
2023-04-16T12:13:20.753Z,100869.84
2023-04-16T12:15:56.077Z,100869.47
2023-04-16T12:18:26.223Z,100875.13
2023-04-16T12:20:53.221Z,100878.66
2023-04-16T12:23:28.024Z,100877.72
2023-04-16T12:25:55.419Z,100879.16
2023-04-16T12:28:29.124Z,100878.19
2023-04-16T12:30:56.232Z,100879.72
2023-04-16T12:33:23.201Z,100888.19
2023-04-16T12:35:50.703Z,100891.69
2023-04-16T12:38:17.558Z,100890.41
2023-04-16T12:40:44.497Z,100885.00
2023-04-16T12:43:11.295Z,100890.19
2023-04-16T12:45:39.419Z,100889.91
2023-04-16T12:48:06.355Z,100876.06
2023-04-16T12:50:33.226Z,100878.19
2023-04-16T12:53:00.137Z,100883.34
2023-04-16T12:55:26.985Z,100883.59
2023-04-16T12:57:54.587Z,100891.03
2023-04-16T13:00:21.994Z,100885.63
2023-04-16T13:02:48.956Z,100893.94
2023-04-16T13:05:17.344Z,100894.88
2023-04-16T13:07:44.127Z,100896.44
2023-04-16T13:10:11.005Z,100885.81
2023-04-16T13:12:37.855Z,100889.72
2023-04-16T13:15:05.305Z,100885.94
2023-04-16T13:17:32.201Z,100883.63
2023-04-16T13:19:59.089Z,100884.13
2023-04-16T13:22:25.874Z,100878.03
2023-04-16T13:24:52.680Z,100874.16
2023-04-16T13:27:19.467Z,100882.13
2023-04-16T13:29:47.138Z,100878.88
2023-04-16T13:32:14.848Z,100888.16
2023-04-16T13:34:41.673Z,100881.75
2023-04-16T13:37:08.477Z,100883.50
2023-04-16T13:39:35.364Z,100878.25
2023-04-16T13:42:02.746Z,100882.69
2023-04-16T13:44:29.730Z,100880.81
2023-04-16T13:46:56.764Z,100873.59
2023-04-16T13:49:23.707Z,100870.94
2023-04-16T13:51:50.715Z,100875.88
2023-04-16T13:54:17.691Z,100869.25
2023-04-16T13:56:44.535Z,100870.19
2023-04-16T13:59:12.141Z,100869.44
2023-04-16T14:01:39.997Z,100870.56
2023-04-16T14:04:07.384Z,100860.22
2023-04-16T14:06:34.655Z,100861.13
2023-04-16T14:09:01.958Z,100861.47
2023-04-16T14:11:28.844Z,100856.28
2023-04-16T14:13:58.229Z,100851.47
2023-04-16T14:16:25.131Z,100857.56
2023-04-16T14:18:52.095Z,100850.88
2023-04-16T14:21:19.169Z,100853.91
2023-04-16T14:23:46.055Z,100851.69
2023-04-16T14:26:13.073Z,100860.72
2023-04-16T14:28:41.016Z,100854.03
2023-04-16T14:31:07.885Z,100851.28
2023-04-16T14:33:34.702Z,100841.31
2023-04-16T14:36:03.082Z,100847.56
2023-04-16T14:38:31.289Z,100848.25
2023-04-16T14:40:58.198Z,100838.75
2023-04-16T14:43:24.990Z,100846.53
2023-04-16T14:45:52.866Z,100831.88
2023-04-16T14:48:19.747Z,100838.84
2023-04-16T14:50:46.674Z,100833.88
2023-04-16T14:53:13.478Z,100835.56
2023-04-16T14:55:40.348Z,100842.59
2023-04-16T14:58:07.212Z,100836.94
2023-04-16T15:00:37.034Z,100840.59
2023-04-16T15:03:04.130Z,100844.09
2023-04-16T15:05:31.879Z,100849.22
2023-04-16T15:07:58.664Z,100850.03
2023-04-16T15:10:25.629Z,100849.72
2023-04-16T15:12:52.434Z,100855.53
2023-04-16T15:15:19.834Z,100853.69
2023-04-16T15:17:47.169Z,100854.75
2023-04-16T15:20:14.515Z,100859.06
2023-04-16T15:22:41.635Z,100852.84
2023-04-16T15:25:09.460Z,100864.75
2023-04-16T15:27:36.962Z,100858.00
2023-04-16T15:30:04.397Z,100855.66
2023-04-16T15:32:31.552Z,100865.38
2023-04-16T15:35:00.168Z,100862.81
2023-04-16T15:37:27.020Z,100871.69
2023-04-16T15:39:53.880Z,100883.09
2023-04-16T15:42:21.072Z,100878.53
2023-04-16T15:44:48.070Z,100869.59
2023-04-16T15:47:15.039Z,100872.44
2023-04-16T15:49:42.155Z,100874.66
2023-04-16T15:52:09.589Z,100872.44
2023-04-16T15:54:36.439Z,100875.38
2023-04-16T15:57:03.352Z,100874.66
2023-04-16T15:59:30.148Z,100873.84
2023-04-16T16:01:57.421Z,100876.06
2023-04-16T16:04:26.590Z,100869.28
2023-04-16T16:06:53.885Z,100875.72
2023-04-16T16:09:25.811Z,100882.88
2023-04-16T16:11:54.417Z,100884.78
2023-04-16T16:14:22.034Z,100877.38
2023-04-16T16:16:49.008Z,100885.34
2023-04-16T16:19:18.308Z,100884.75
2023-04-16T16:21:45.217Z,100889.69
2023-04-16T16:24:12.215Z,100892.75
2023-04-16T16:26:38.941Z,100889.25
2023-04-16T16:29:05.967Z,100894.72
2023-04-16T16:31:32.875Z,100894.38
2023-04-16T16:33:59.686Z,100896.59
2023-04-16T16:36:26.646Z,100903.88
2023-04-16T16:38:53.455Z,100898.94
2023-04-16T16:41:20.730Z,100899.63
2023-04-16T16:43:47.483Z,100897.88
2023-04-16T16:46:14.248Z,100906.78
2023-04-16T16:48:41.203Z,100906.56
2023-04-16T16:51:10.650Z,100904.41
2023-04-16T16:53:37.448Z,100914.34
2023-04-16T16:56:04.435Z,100921.16
2023-04-16T16:58:31.688Z,100922.38
2023-04-16T17:00:58.869Z,100916.38
2023-04-16T17:03:25.789Z,100916.31
2023-04-16T17:05:52.668Z,100914.84
2023-04-16T17:08:22.297Z,100920.78
2023-04-16T17:10:52.097Z,100914.44
2023-04-16T17:13:21.272Z,100922.94
2023-04-16T17:15:49.236Z,100913.94
2023-04-16T17:18:16.604Z,100922.78
2023-04-16T17:20:43.358Z,100923.84
2023-04-16T17:23:10.179Z,100927.91
2023-04-16T17:25:36.986Z,100928.50
2023-04-16T17:28:03.936Z,100931.94
2023-04-16T17:30:31.623Z,100927.97
2023-04-16T17:32:58.588Z,100927.97
2023-04-16T17:35:25.765Z,100925.41
2023-04-16T17:37:52.539Z,100930.94
2023-04-16T17:40:19.376Z,100942.03
2023-04-16T17:42:46.284Z,100942.91
2023-04-16T17:45:13.432Z,100939.19
2023-04-16T17:47:40.439Z,100954.16
2023-04-16T17:50:08.713Z,100949.59
2023-04-16T17:52:35.538Z,100954.63
2023-04-16T17:55:03.667Z,100952.00
2023-04-16T17:57:31.046Z,100955.53
2023-04-16T17:59:58.359Z,100963.06
2023-04-16T18:02:25.825Z,100965.78
2023-04-16T18:04:52.841Z,100966.25
2023-04-16T18:07:19.835Z,100969.03
2023-04-16T18:09:46.657Z,100968.53
2023-04-16T18:12:13.749Z,100974.13
2023-04-16T18:14:40.790Z,100973.44
2023-04-16T18:17:07.722Z,100978.91
2023-04-16T18:19:35.530Z,100971.16
2023-04-16T18:22:02.853Z,100973.91
2023-04-16T18:24:29.673Z,100971.66
2023-04-16T18:26:56.851Z,100974.91
2023-04-16T18:29:25.284Z,100976.63
2023-04-16T18:31:52.579Z,100987.16
2023-04-16T18:34:19.528Z,100984.47
2023-04-16T18:36:46.422Z,100993.00
2023-04-16T18:39:13.307Z,100992.75
2023-04-16T18:41:43.616Z,100985.44
2023-04-16T18:44:13.418Z,100987.09
2023-04-16T18:46:40.223Z,100993.41
2023-04-16T18:49:07.208Z,101005.81
2023-04-16T18:51:34.026Z,100992.97
2023-04-16T18:54:00.804Z,100996.09
2023-04-16T18:56:29.869Z,101007.47
2023-04-16T18:58:56.639Z,101009.53
2023-04-16T19:01:23.442Z,101017.19
2023-04-16T19:03:50.359Z,101016.38
2023-04-16T19:06:17.294Z,101021.38
2023-04-16T19:08:44.091Z,101022.41
2023-04-16T19:11:10.860Z,101031.13
2023-04-16T19:13:38.720Z,101032.16
2023-04-16T19:16:11.150Z,101024.91
2023-04-16T19:18:38.892Z,101031.53
2023-04-16T19:21:07.048Z,101034.03
2023-04-16T19:23:33.941Z,101029.91
2023-04-16T19:26:01.705Z,101028.03
2023-04-16T19:28:28.648Z,101029.91
2023-04-16T19:30:56.005Z,101025.75
2023-04-16T19:33:22.952Z,101024.31
2023-04-16T19:35:49.770Z,101030.34
2023-04-16T19:38:16.747Z,101034.66
2023-04-16T19:40:48.359Z,101032.59
2023-04-16T19:43:15.441Z,101029.31
2023-04-16T19:45:53.460Z,101031.78
2023-04-16T19:48:21.583Z,101042.72
2023-04-16T19:50:48.614Z,101034.66
2023-04-16T19:53:17.313Z,101047.69
2023-04-16T19:55:44.223Z,101049.31
2023-04-16T19:58:11.063Z,101052.44
2023-04-16T20:00:38.986Z,101038.19
2023-04-16T20:03:06.444Z,101042.31
2023-04-16T20:05:33.449Z,101049.56
2023-04-16T20:08:00.409Z,101046.22
2023-04-16T20:10:27.941Z,101044.78
2023-04-16T20:12:54.865Z,101050.38
2023-04-16T20:15:21.832Z,101047.66
2023-04-16T20:17:48.725Z,101050.38
2023-04-16T20:20:16.512Z,101051.00
2023-04-16T20:22:43.904Z,101057.41
2023-04-16T20:25:11.560Z,101056.94
2023-04-16T20:27:38.602Z,101056.94
2023-04-16T20:30:06.458Z,101061.09
2023-04-16T20:32:33.537Z,101058.44
2023-04-16T20:35:02.001Z,101062.13
2023-04-16T20:37:29.260Z,101056.53
2023-04-16T20:39:56.423Z,101055.28
2023-04-16T20:42:23.513Z,101063.97
2023-04-16T20:44:50.710Z,101071.81
2023-04-16T20:47:17.506Z,101068.09
2023-04-16T20:49:47.410Z,101071.84
2023-04-16T20:52:14.818Z,101069.41
2023-04-16T20:54:41.705Z,101074.13
2023-04-16T20:57:08.536Z,101070.63
2023-04-16T20:59:36.952Z,101070.84
2023-04-16T21:02:03.900Z,101075.59
2023-04-16T21:04:31.086Z,101075.19
2023-04-16T21:06:58.118Z,101083.03
2023-04-16T21:09:25.327Z,101077.47
2023-04-16T21:11:52.130Z,101088.97
2023-04-16T21:14:18.929Z,101083.66
2023-04-16T21:16:46.013Z,101091.53
2023-04-16T21:19:12.981Z,101094.81
2023-04-16T21:21:40.432Z,101101.44
2023-04-16T21:24:07.497Z,101100.19
2023-04-16T21:26:34.518Z,101090.19
2023-04-16T21:29:01.444Z,101093.28
2023-04-16T21:31:28.369Z,101098.03
2023-04-16T21:33:55.240Z,101098.50
2023-04-16T21:36:22.088Z,101092.69
2023-04-16T21:38:48.954Z,101092.91
2023-04-16T21:41:16.973Z,101105.50
2023-04-16T21:43:44.002Z,101112.13
2023-04-16T21:46:10.905Z,101106.31
2023-04-16T21:48:37.716Z,101111.94
2023-04-16T21:51:08.292Z,101116.25
2023-04-16T21:53:35.377Z,101111.97
2023-04-16T21:56:03.620Z,101112.78
2023-04-16T21:58:30.640Z,101114.19
2023-04-16T22:00:57.435Z,101109.25
2023-04-16T22:03:28.095Z,101114.00
2023-04-16T22:06:01.155Z,101114.81
2023-04-16T22:08:29.129Z,101117.13
2023-04-16T22:11:03.177Z,101125.56
2023-04-16T22:13:32.423Z,101124.56
2023-04-16T22:16:03.403Z,101114.41
2023-04-16T22:18:33.779Z,101113.16
2023-04-16T22:21:01.563Z,101119.16
2023-04-16T22:23:28.725Z,101117.09
2023-04-16T22:25:56.308Z,101120.19
2023-04-16T22:28:23.292Z,101120.38
2023-04-16T22:30:50.083Z,101133.22
2023-04-16T22:33:17.004Z,101125.56
2023-04-16T22:35:43.867Z,101129.69
2023-04-16T22:38:10.802Z,101131.53
2023-04-16T22:40:37.738Z,101129.28
2023-04-16T22:43:05.333Z,101135.47
2023-04-16T22:45:32.238Z,101127.63
2023-04-16T22:47:59.120Z,101134.03
2023-04-16T22:50:25.927Z,101137.31
2023-04-16T22:52:52.765Z,101139.19
2023-04-16T22:55:19.629Z,101139.16
2023-04-16T22:57:47.639Z,101139.78
2023-04-16T23:00:16.794Z,101135.03
2023-04-16T23:02:44.396Z,101139.56
2023-04-16T23:05:11.888Z,101149.06
2023-04-16T23:07:39.067Z,101142.81
2023-04-16T23:10:08.314Z,101136.00
2023-04-16T23:12:37.508Z,101144.69
2023-04-16T23:15:06.754Z,101148.63
2023-04-16T23:17:35.127Z,101151.91
2023-04-16T23:20:02.532Z,101148.41
2023-04-16T23:22:29.413Z,101149.66
2023-04-16T23:24:56.366Z,101144.88
2023-04-16T23:27:23.174Z,101157.69
2023-04-16T23:29:50.005Z,101152.06
2023-04-16T23:32:16.882Z,101152.69
2023-04-16T23:34:43.751Z,101146.69
2023-04-16T23:37:10.740Z,101148.41
2023-04-16T23:39:37.739Z,101151.25
2023-04-16T23:42:04.586Z,101154.75
2023-04-16T23:44:31.368Z,101152.13
2023-04-16T23:46:59.052Z,101152.13
2023-04-16T23:49:26.065Z,101160.81
2023-04-16T23:51:52.930Z,101161.00
2023-04-16T23:54:19.887Z,101160.59
2023-04-16T23:56:46.702Z,101166.38
2023-04-16T23:59:14.167Z,101156.06
